Time;durP1;ratioP1;P1;durP2;ratioP2;P2;SDS_P1;SDS_P2;PMS_P1;PMS_P2;Temp;Humidity;BMP_temperature;BMP_pressure;BME280_temperature;BME280_humidity;BME280_pressure;Samples;Min_cycle;Max_cycle;Signal;HPM_P1;HPM_P2
2022/01/19 00:01:22;;;;;;;34.55;14.68;;;5.40;99.90;;;;;;5093582;28;20048;-72
2022/01/19 00:03:47;;;;;;;35.72;16.15;;;5.30;99.90;;;;;;5092421;28;20134;-72
2022/01/19 00:06:13;;;;;;;34.22;14.95;;;5.40;99.90;;;;;;5074910;28;20115;-72
2022/01/19 00:08:39;;;;;;;33.72;15.38;;;5.40;99.90;;;;;;5093042;28;20067;-72
2022/01/19 00:11:05;;;;;;;33.10;16.00;;;5.40;99.90;;;;;;5092519;28;20047;-71
2022/01/19 00:13:31;;;;;;;34.83;15.00;;;5.50;99.90;;;;;;5076214;28;20036;-71
2022/01/19 00:15:57;;;;;;;28.63;11.15;;;5.40;99.90;;;;;;5091542;28;20115;-71
2022/01/19 00:18:24;;;;;;;39.33;17.08;;;5.50;99.90;;;;;;5076519;28;20078;-71
2022/01/19 00:20:52;;;;;;;41.28;16.67;;;5.40;99.90;;;;;;5075139;28;20036;-71
2022/01/19 00:23:18;;;;;;;34.80;15.07;;;5.40;99.90;;;;;;5092460;28;20048;-71
2022/01/19 00:25:46;;;;;;;32.85;13.45;;;5.50;99.90;;;;;;5091703;28;20039;-71
2022/01/19 00:28:12;;;;;;;38.53;16.45;;;5.50;99.90;;;;;;5093266;28;20081;-71
2022/01/19 00:30:38;;;;;;;40.42;18.05;;;5.50;99.90;;;;;;5091446;28;20476;-71
2022/01/19 00:33:04;;;;;;;40.47;16.38;;;5.40;99.90;;;;;;5093478;28;20031;-71
2022/01/19 00:35:29;;;;;;;39.58;16.73;;;5.40;99.90;;;;;;5085391;28;20563;-72
2022/01/19 00:37:55;;;;;;;36.92;16.23;;;5.30;99.90;;;;;;5091663;28;20039;-71
2022/01/19 00:40:21;;;;;;;30.88;14.25;;;5.40;99.90;;;;;;5092407;28;20114;-71
2022/01/19 00:42:49;;;;;;;41.83;16.95;;;5.40;99.90;;;;;;5092883;28;20546;-71
2022/01/19 00:45:15;;;;;;;34.75;15.10;;;5.20;99.90;;;;;;5072475;28;20150;-72
2022/01/19 00:47:42;;;;;;;42.80;18.13;;;5.30;99.90;;;;;;5091624;28;20052;-72
2022/01/19 00:50:10;;;;;;;29.10;13.68;;;5.30;99.90;;;;;;5092133;28;20447;-71
2022/01/19 00:52:36;;;;;;;38.72;14.25;;;5.30;99.90;;;;;;5093173;28;20399;-71
2022/01/19 00:55:04;;;;;;;34.67;15.60;;;5.50;99.90;;;;;;5074978;28;20111;-71
2022/01/19 00:57:30;;;;;;;36.50;15.65;;;5.50;99.90;;;;;;5076102;28;20399;-71
2022/01/19 00:59:56;;;;;;;32.00;13.15;;;5.50;99.90;;;;;;5075222;28;20131;-71
2022/01/19 01:02:21;;;;;;;30.48;13.27;;;5.50;99.90;;;;;;5091926;28;20036;-71
2022/01/19 01:04:47;;;;;;;31.42;12.27;;;5.50;99.90;;;;;;5091440;28;20036;-71
2022/01/19 01:07:12;;;;;;;34.80;15.13;;;5.60;99.90;;;;;;5092584;28;20040;-71
2022/01/19 01:09:38;;;;;;;37.08;16.65;;;5.60;99.90;;;;;;5075578;28;20032;-71
2022/01/19 01:12:13;;;;;;;33.97;12.95;;;5.50;99.90;;;;;;5072560;28;20039;-71
2022/01/19 01:20:11;;;;;;;33.45;12.10;;;5.60;99.90;;;;;;5091619;28;20445;-71
2022/01/19 01:22:39;;;;;;;29.80;12.32;;;5.50;99.90;;;;;;5092390;28;20043;-71
2022/01/19 01:25:05;;;;;;;37.83;13.68;;;5.60;99.90;;;;;;5073804;28;20039;-71
2022/01/19 01:27:31;;;;;;;28.23;13.00;;;5.60;99.90;;;;;;5075441;28;20035;-71
2022/01/19 01:29:57;;;;;;;25.52;10.85;;;5.60;99.90;;;;;;5074550;28;20472;-71
2022/01/19 01:32:23;;;;;;;33.53;13.70;;;5.60;99.90;;;;;;5092214;28;20036;-71
2022/01/19 01:34:50;;;;;;;36.80;14.90;;;5.50;99.90;;;;;;5090839;28;20051;-71
2022/01/19 01:37:16;;;;;;;38.40;14.68;;;5.50;99.90;;;;;;5091349;28;20100;-71
2022/01/19 01:39:42;;;;;;;35.20;13.88;;;5.50;99.90;;;;;;5091526;28;20036;-71
2022/01/19 01:42:09;;;;;;;35.97;16.83;;;5.60;99.90;;;;;;5092003;28;20043;-71
2022/01/19 01:44:37;;;;;;;38.75;14.15;;;5.50;99.90;;;;;;5091162;28;20115;-71
2022/01/19 01:47:03;;;;;;;44.20;16.75;;;5.50;99.90;;;;;;5089751;28;20129;-71
2022/01/19 01:49:45;;;;;;;38.35;14.93;;;5.40;99.90;;;;;;5097785;28;20052;-71
2022/01/19 01:54:55;;;;;;;40.78;16.55;;;5.50;99.90;;;;;;5098750;28;20048;-71
2022/01/19 01:57:21;;;;;;;40.10;16.00;;;5.50;99.90;;;;;;5081033;28;20500;-71
2022/01/19 01:59:47;;;;;;;41.85;15.93;;;5.50;99.90;;;;;;5080677;28;20043;-71
2022/01/19 02:02:14;;;;;;;41.72;17.27;;;5.50;99.90;;;;;;5080885;28;20031;-71
2022/01/19 02:04:41;;;;;;;47.75;19.88;;;5.40;99.90;;;;;;5081699;28;20051;-71
2022/01/19 02:09:49;;;;;;;39.92;16.67;;;5.30;99.90;;;;;;5098876;28;20051;-71
2022/01/19 02:23:25;;;;;;;41.20;17.23;;;5.50;99.90;;;;;;5097948;28;20036;-71
2022/01/19 02:25:58;;;;;;;42.08;16.88;;;5.40;99.90;;;;;;5061693;28;20094;-71
2022/01/19 02:42:05;;;;;;;40.67;17.95;;;5.50;99.90;;;;;;5098344;28;20040;-71
2022/01/19 02:49:48;;;;;;;39.25;17.15;;;5.50;99.90;;;;;;5097364;28;20040;-71
2022/01/19 02:52:14;;;;;;;31.80;13.98;;;5.50;99.90;;;;;;5076606;28;20118;-71
2022/01/19 02:54:40;;;;;;;35.97;15.70;;;5.50;99.90;;;;;;5084909;28;20440;-71
2022/01/19 02:57:09;;;;;;;38.35;17.20;;;5.50;99.90;;;;;;5096431;28;20078;-71
2022/01/19 03:00:00;;;;;;;41.53;17.70;;;5.50;99.90;;;;;;5094311;28;20038;-71
2022/01/19 03:10:38;;;;;;;34.45;16.42;;;5.50;99.90;;;;;;5093116;28;20476;-71
2022/01/19 03:13:04;;;;;;;37.83;17.92;;;5.40;99.90;;;;;;5094575;28;20036;-71
2022/01/19 03:15:29;;;;;;;37.63;15.88;;;5.40;99.90;;;;;;5077273;28;20051;-71
2022/01/19 03:17:58;;;;;;;40.03;17.77;;;5.30;99.90;;;;;;5080117;28;20086;-71
2022/01/19 03:20:25;;;;;;;39.55;18.55;;;5.20;99.90;;;;;;5090365;28;20499;-71
2022/01/19 03:23:03;;;;;;;30.75;12.85;;;5.20;99.90;;;;;;5076821;28;20051;-71
2022/01/19 03:25:29;;;;;;;25.85;11.63;;;5.30;99.90;;;;;;5094439;28;20488;-71
2022/01/19 03:27:55;;;;;;;34.80;15.75;;;5.30;99.90;;;;;;5093513;28;20040;-71
2022/01/19 03:30:22;;;;;;;34.38;16.10;;;5.30;99.90;;;;;;5093770;28;20044;-71
2022/01/19 03:32:48;;;;;;;35.78;17.75;;;5.30;99.90;;;;;;5093485;28;20047;-71
2022/01/19 03:35:14;;;;;;;38.15;18.08;;;5.20;99.90;;;;;;5077476;28;20578;-71
2022/01/19 03:37:40;;;;;;;41.00;18.23;;;5.10;99.90;;;;;;5076526;28;20040;-71
2022/01/19 03:40:07;;;;;;;39.10;18.00;;;5.10;99.90;;;;;;5093278;28;20124;-71
2022/01/19 03:42:34;;;;;;;41.20;18.75;;;5.10;99.90;;;;;;5075836;28;20036;-71
2022/01/19 03:45:00;;;;;;;40.33;18.20;;;5.20;99.90;;;;;;5092401;28;20407;-71
2022/01/19 03:47:27;;;;;;;36.38;18.05;;;5.20;99.90;;;;;;5103878;28;20057;-71
2022/01/19 03:49:53;;;;;;;40.80;20.25;;;5.20;99.90;;;;;;5073676;28;20143;-71
2022/01/19 03:52:19;;;;;;;34.97;15.95;;;5.10;99.90;;;;;;5073924;28;20521;-71
2022/01/19 03:54:45;;;;;;;42.28;19.08;;;5.20;99.90;;;;;;5093870;28;20032;-71
2022/01/19 03:57:12;;;;;;;41.33;18.55;;;5.10;99.90;;;;;;5075768;28;20123;-71
2022/01/19 03:59:38;;;;;;;42.75;20.20;;;5.20;99.90;;;;;;5074021;28;20044;-71
2022/01/19 04:02:05;;;;;;;40.42;19.05;;;5.10;99.90;;;;;;5092208;28;20068;-71
2022/01/19 04:07:09;;;;;;;44.95;19.20;;;5.10;99.90;;;;;;5091234;28;20101;-71
2022/01/19 04:09:40;;;;;;;40.88;19.33;;;5.10;99.90;;;;;;5076662;28;20036;-71
2022/01/19 04:12:09;;;;;;;46.72;20.55;;;5.10;99.90;;;;;;5092712;28;20115;-71
2022/01/19 04:14:35;;;;;;;41.00;18.83;;;5.10;99.90;;;;;;5076627;28;20040;-72
2022/01/19 04:17:05;;;;;;;38.22;18.52;;;5.00;99.90;;;;;;5092916;28;20400;-71
2022/01/19 04:22:07;;;;;;;38.13;16.80;;;5.10;99.90;;;;;;5083120;28;20077;-71
2022/01/19 04:24:33;;;;;;;37.92;19.05;;;5.20;99.90;;;;;;5074495;28;20039;-71
2022/01/19 04:27:45;;;;;;;35.00;16.92;;;5.10;99.90;;;;;;5075576;28;20089;-71
2022/01/19 04:30:29;;;;;;;34.38;16.48;;;5.10;99.90;;;;;;5081824;28;20134;-71
2022/01/19 04:33:02;;;;;;;38.30;19.65;;;5.10;99.90;;;;;;5087444;28;20076;-71
2022/01/19 04:35:31;;;;;;;39.47;20.13;;;4.90;99.90;;;;;;5089246;28;20480;-71
2022/01/19 04:46:19;;;;;;;42.20;19.60;;;4.60;99.90;;;;;;5088257;28;20051;-71
2022/01/19 04:49:13;;;;;;;36.78;19.38;;;4.80;99.90;;;;;;5076057;28;20657;-72
2022/01/19 05:05:15;;;;;;;36.85;17.55;;;4.80;99.90;;;;;;5092527;28;20043;-71
2022/01/19 05:07:55;;;;;;;36.83;17.70;;;4.70;99.90;;;;;;5088561;28;20514;-71
2022/01/19 05:15:50;;;;;;;40.95;20.85;;;4.60;99.90;;;;;;5090853;28;20730;-71
2022/01/19 05:18:17;;;;;;;40.60;20.38;;;4.60;99.90;;;;;;5089045;28;20042;-71
2022/01/19 05:20:44;;;;;;;41.85;21.70;;;4.70;99.90;;;;;;5090251;28;20044;-71
2022/01/19 05:23:10;;;;;;;39.92;21.67;;;4.70;99.90;;;;;;5091066;28;20040;-72
2022/01/19 05:25:36;;;;;;;42.30;21.42;;;4.70;99.90;;;;;;5090537;28;20104;-71
2022/01/19 05:28:02;;;;;;;40.53;21.63;;;4.70;99.90;;;;;;5090854;28;20068;-71
2022/01/19 05:30:27;;;;;;;40.55;20.10;;;4.80;99.90;;;;;;5088693;28;20032;-71
2022/01/19 05:32:53;;;;;;;34.80;19.50;;;4.80;99.90;;;;;;5062446;28;20481;-71
2022/01/19 05:35:19;;;;;;;38.47;19.55;;;4.90;99.90;;;;;;5082298;28;20036;-71
2022/01/19 05:37:44;;;;;;;37.65;20.63;;;4.90;99.90;;;;;;5079347;28;20086;-71
2022/01/19 05:40:13;;;;;;;34.05;18.73;;;4.80;99.90;;;;;;5085834;28;20036;-71
2022/01/19 05:42:39;;;;;;;39.10;18.70;;;4.90;99.90;;;;;;5088681;28;20411;-71
2022/01/19 05:45:06;;;;;;;40.22;19.58;;;4.90;99.90;;;;;;5073685;28;20040;-72
2022/01/19 05:47:32;;;;;;;40.67;19.90;;;4.80;99.90;;;;;;5073680;28;20052;-72
2022/01/19 05:49:57;;;;;;;40.47;19.73;;;4.70;99.90;;;;;;5090250;28;20127;-71
2022/01/19 05:52:23;;;;;;;41.63;22.35;;;4.80;99.90;;;;;;5090309;28;20080;-71
2022/01/19 05:54:48;;;;;;;39.00;20.95;;;4.70;99.90;;;;;;5090931;28;20473;-71
2022/01/19 05:57:14;;;;;;;37.40;19.35;;;4.60;99.90;;;;;;5073070;28;20036;-71
2022/01/19 05:59:40;;;;;;;35.90;19.45;;;4.70;99.90;;;;;;5090483;28;20040;-71
2022/01/19 06:02:06;;;;;;;35.33;19.77;;;4.80;99.90;;;;;;5090435;28;20181;-71
2022/01/19 06:04:32;;;;;;;38.95;21.77;;;4.70;99.90;;;;;;5089154;28;20519;-71
2022/01/19 06:06:57;;;;;;;39.67;20.30;;;4.70;99.90;;;;;;5071615;28;20069;-71
2022/01/19 06:09:48;;;;;;;40.38;20.15;;;4.80;99.90;;;;;;5073750;28;20039;-71
2022/01/19 06:12:15;;;;;;;34.67;19.02;;;4.80;99.90;;;;;;5073436;28;20036;-71
2022/01/19 06:14:43;;;;;;;40.60;19.60;;;4.80;99.90;;;;;;5074548;28;20399;-71
2022/01/19 06:17:10;;;;;;;37.85;20.70;;;4.80;99.90;;;;;;5089978;28;20051;-71
2022/01/19 06:19:36;;;;;;;37.50;20.45;;;4.80;99.90;;;;;;5089489;28;20036;-71
2022/01/19 06:22:02;;;;;;;36.55;19.65;;;4.70;99.90;;;;;;5074778;28;20047;-71
2022/01/19 06:24:27;;;;;;;37.53;21.33;;;4.90;99.90;;;;;;5073043;28;20040;-72
2022/01/19 06:26:54;;;;;;;41.60;20.63;;;4.90;99.90;;;;;;5074623;28;20028;-71
2022/01/19 06:29:19;;;;;;;40.08;22.75;;;5.00;99.90;;;;;;5088272;28;20036;-71
2022/01/19 06:31:45;;;;;;;38.80;19.15;;;4.90;99.90;;;;;;5071738;28;20454;-71
2022/01/19 06:34:10;;;;;;;40.67;20.77;;;5.00;99.90;;;;;;5072568;28;20051;-71
2022/01/19 06:36:36;;;;;;;39.08;19.55;;;5.00;99.90;;;;;;5077051;28;20114;-71
2022/01/19 06:39:03;;;;;;;40.63;22.60;;;5.00;99.90;;;;;;5094625;28;20047;-72
2022/01/19 06:41:29;;;;;;;37.20;20.52;;;5.00;99.90;;;;;;5076030;28;20044;-72
2022/01/19 06:43:54;;;;;;;37.13;20.08;;;5.00;99.90;;;;;;5077730;28;20529;-72
2022/01/19 06:46:20;;;;;;;41.50;20.48;;;5.00;99.90;;;;;;5093475;28;20044;-72
2022/01/19 06:48:45;;;;;;;41.28;21.48;;;5.00;99.90;;;;;;5094249;28;20044;-72
2022/01/19 06:51:11;;;;;;;37.13;20.13;;;5.00;99.90;;;;;;5076134;28;20484;-72
2022/01/19 06:53:36;;;;;;;41.47;22.00;;;5.10;99.90;;;;;;5077015;28;20085;-72
2022/01/19 06:56:02;;;;;;;40.03;21.73;;;5.00;99.90;;;;;;5071478;28;20502;-72
2022/01/19 06:58:28;;;;;;;37.88;20.48;;;5.00;99.90;;;;;;5065996;28;20040;-72
2022/01/19 07:00:55;;;;;;;37.60;19.65;;;5.00;99.90;;;;;;5062377;28;20032;-72
2022/01/19 07:03:20;;;;;;;38.80;19.15;;;4.90;99.90;;;;;;5085074;28;20036;-72
2022/01/19 07:05:46;;;;;;;38.58;20.52;;;5.00;99.90;;;;;;5074682;28;20373;-72
2022/01/19 07:08:12;;;;;;;35.75;19.40;;;5.00;99.90;;;;;;5089101;28;20039;-72
2022/01/19 07:10:37;;;;;;;38.80;20.05;;;5.00;99.90;;;;;;5088730;28;20039;-72
2022/01/19 07:13:05;;;;;;;38.83;19.75;;;5.00;99.90;;;;;;5077921;28;20039;-72
2022/01/19 07:15:30;;;;;;;40.60;21.13;;;5.00;99.90;;;;;;5088991;28;20429;-72
2022/01/19 07:17:57;;;;;;;40.45;20.25;;;5.00;99.90;;;;;;5076794;28;20050;-72
2022/01/19 07:20:22;;;;;;;36.17;18.92;;;5.00;99.90;;;;;;5093489;28;20135;-72
2022/01/19 07:22:48;;;;;;;39.00;19.60;;;4.90;99.90;;;;;;5089725;28;20123;-72
2022/01/19 07:25:16;;;;;;;37.88;19.65;;;5.00;99.90;;;;;;5087611;28;20036;-72
2022/01/19 07:27:41;;;;;;;38.83;19.60;;;5.00;99.90;;;;;;5077624;28;20492;-72
2022/01/19 07:30:08;;;;;;;42.42;22.02;;;4.90;99.90;;;;;;5075018;28;20035;-72
2022/01/19 07:32:35;;;;;;;39.35;21.63;;;4.90;99.90;;;;;;5076730;28;20043;-72
2022/01/19 07:35:05;;;;;;;42.67;20.75;;;4.90;99.90;;;;;;5093552;28;20050;-72
2022/01/19 07:37:31;;;;;;;44.97;20.50;;;4.90;99.90;;;;;;5074402;28;20090;-72
2022/01/19 07:39:57;;;;;;;37.88;18.70;;;4.90;99.90;;;;;;5092903;28;20035;-72
2022/01/19 07:42:26;;;;;;;40.08;19.75;;;5.00;99.90;;;;;;5077381;28;20558;-72
2022/01/19 07:44:53;;;;;;;39.60;21.60;;;5.00;99.90;;;;;;5092735;28;20048;-72
2022/01/19 07:47:23;;;;;;;35.38;19.35;;;4.90;99.90;;;;;;5091016;28;20074;-72
2022/01/19 07:49:48;;;;;;;39.47;20.02;;;4.90;99.90;;;;;;5093830;28;20050;-72
2022/01/19 07:52:14;;;;;;;39.47;19.77;;;5.00;99.90;;;;;;5093828;28;20463;-73
2022/01/19 07:54:40;;;;;;;36.20;19.70;;;5.00;99.90;;;;;;5077082;28;20093;-74
2022/01/19 07:57:06;;;;;;;38.53;20.98;;;5.00;99.90;;;;;;5071104;28;20090;-72
2022/01/19 07:59:31;;;;;;;36.45;20.38;;;5.00;99.90;;;;;;5072856;28;20039;-72
2022/01/19 08:01:57;;;;;;;37.67;20.67;;;5.00;99.90;;;;;;5073818;28;20447;-72
2022/01/19 08:04:23;;;;;;;36.65;19.67;;;4.90;99.90;;;;;;5073374;28;20037;-72
2022/01/19 08:06:54;;;;;;;37.03;19.35;;;4.90;99.90;;;;;;5073785;28;20044;-72
2022/01/19 08:09:25;;;;;;;34.10;18.73;;;4.90;99.90;;;;;;5073372;28;20534;-72
2022/01/19 08:11:50;;;;;;;36.15;18.25;;;5.00;99.90;;;;;;5073664;28;20469;-72
2022/01/19 08:14:16;;;;;;;36.20;19.48;;;5.00;99.90;;;;;;5073374;28;20072;-72
2022/01/19 08:16:42;;;;;;;35.60;20.15;;;5.00;99.90;;;;;;5073523;28;20058;-72
2022/01/19 08:19:08;;;;;;;35.80;18.55;;;5.00;99.90;;;;;;5076080;28;20040;-72
2022/01/19 08:21:34;;;;;;;32.58;17.15;;;5.00;99.90;;;;;;5076810;28;20040;-72
2022/01/19 08:23:59;;;;;;;33.28;16.73;;;4.90;99.90;;;;;;5091589;28;20051;-72
2022/01/19 08:26:25;;;;;;;31.40;16.85;;;5.00;99.90;;;;;;5073090;28;20497;-71
2022/01/19 08:28:50;;;;;;;29.13;16.75;;;4.90;99.90;;;;;;5081405;28;20480;-72
2022/01/19 08:31:16;;;;;;;28.23;13.40;;;4.90;99.90;;;;;;5093062;28;20046;-71
2022/01/19 08:33:42;;;;;;;30.85;15.65;;;4.90;99.90;;;;;;5093210;28;20040;-72
2022/01/19 08:36:07;;;;;;;26.92;12.18;;;4.90;99.90;;;;;;5076361;28;20031;-71
2022/01/19 08:38:34;;;;;;;29.23;14.75;;;5.00;99.90;;;;;;5093449;28;20373;-71
2022/01/19 08:41:00;;;;;;;30.60;15.02;;;4.90;99.90;;;;;;5092898;28;20488;-71
2022/01/19 08:43:26;;;;;;;35.00;17.15;;;4.80;99.90;;;;;;5075253;28;20028;-71
2022/01/19 08:45:53;;;;;;;28.80;15.23;;;4.90;99.90;;;;;;5075799;28;20416;-71
2022/01/19 08:48:19;;;;;;;36.35;18.42;;;4.90;99.90;;;;;;5076097;28;20087;-71
2022/01/19 08:50:45;;;;;;;31.65;17.52;;;4.90;99.90;;;;;;5076191;28;20078;-71
2022/01/19 08:53:11;;;;;;;25.48;11.98;;;4.90;99.90;;;;;;5092804;28;20039;-72
2022/01/19 08:55:37;;;;;;;28.95;15.20;;;4.90;99.90;;;;;;5093036;28;20067;-71
2022/01/19 08:58:05;;;;;;;33.67;17.45;;;4.90;99.90;;;;;;5075130;28;20068;-71
2022/01/19 09:00:31;;;;;;;35.22;18.23;;;4.80;99.90;;;;;;5075714;28;20036;-72
2022/01/19 09:02:57;;;;;;;33.92;17.25;;;4.80;99.90;;;;;;5091990;28;20094;-73
2022/01/19 09:05:22;;;;;;;28.60;15.23;;;4.80;99.90;;;;;;5075704;28;20119;-72
2022/01/19 09:07:48;;;;;;;31.27;17.52;;;4.90;99.90;;;;;;5092674;28;20036;-73
2022/01/19 09:10:15;;;;;;;35.83;18.42;;;4.90;99.90;;;;;;5075791;28;20534;-73
2022/01/19 09:12:42;;;;;;;35.92;17.75;;;4.90;99.90;;;;;;5092553;28;20047;-73
2022/01/19 09:15:09;;;;;;;36.78;18.17;;;4.90;99.90;;;;;;5075524;28;20040;-73
2022/01/19 09:17:34;;;;;;;38.97;21.45;;;4.90;99.90;;;;;;5092727;28;20392;-73
2022/01/19 09:20:00;;;;;;;34.65;17.52;;;4.80;99.90;;;;;;5075746;28;20032;-73
2022/01/19 09:22:26;;;;;;;40.20;20.92;;;4.90;99.90;;;;;;5075753;28;20044;-73
2022/01/19 09:24:52;;;;;;;33.88;18.20;;;4.90;99.90;;;;;;5092462;28;20119;-73
2022/01/19 09:27:18;;;;;;;35.60;16.95;;;4.80;99.90;;;;;;5092238;28;20075;-73
2022/01/19 09:29:45;;;;;;;39.88;21.23;;;4.90;99.90;;;;;;5074848;28;20500;-73
2022/01/19 09:32:12;;;;;;;35.08;18.35;;;4.90;99.90;;;;;;5075323;28;20085;-73
2022/01/19 09:34:42;;;;;;;39.05;19.08;;;4.90;99.90;;;;;;5092280;28;20040;-73
2022/01/19 09:37:08;;;;;;;29.60;14.95;;;5.00;99.90;;;;;;5075397;28;20131;-73
2022/01/19 09:39:34;;;;;;;34.80;18.70;;;5.00;99.90;;;;;;5092381;28;20130;-73
2022/01/19 09:41:59;;;;;;;32.38;15.77;;;5.00;99.90;;;;;;5075120;28;20047;-73
2022/01/19 09:44:28;;;;;;;37.88;19.33;;;5.00;99.90;;;;;;5091941;28;20068;-73
2022/01/19 09:46:53;;;;;;;23.23;13.00;;;5.00;99.90;;;;;;5075194;28;20044;-72
2022/01/19 09:49:20;;;;;;;33.30;19.02;;;5.00;99.90;;;;;;5092049;28;20047;-73
2022/01/19 09:51:47;;;;;;;33.33;19.13;;;5.00;99.90;;;;;;5075111;28;20128;-73
2022/01/19 09:54:15;;;;;;;37.85;20.17;;;5.10;99.90;;;;;;5092324;28;20456;-73
2022/01/19 09:56:42;;;;;;;36.72;19.55;;;5.10;99.90;;;;;;5075396;28;20117;-73
2022/01/19 09:59:08;;;;;;;38.97;20.08;;;5.10;99.90;;;;;;5091141;28;20040;-73
2022/01/19 10:01:34;;;;;;;33.08;19.73;;;5.10;99.90;;;;;;5091846;28;20086;-73
2022/01/19 10:04:17;;;;;;;36.70;17.90;;;5.10;99.90;;;;;;5092204;28;20131;-73
2022/01/19 10:06:42;;;;;;;36.67;19.13;;;5.10;99.90;;;;;;5075101;28;20144;-72
2022/01/19 10:09:08;;;;;;;32.20;19.80;;;5.20;99.90;;;;;;5093382;28;20535;-73
2022/01/19 10:17:00;;;;;;;38.97;20.35;;;5.20;99.90;;;;;;5095952;28;20488;-73
2022/01/19 10:19:37;;;;;;;34.50;20.48;;;5.30;99.90;;;;;;5078992;28;20477;-73
2022/01/19 10:22:09;;;;;;;35.85;20.75;;;5.30;99.90;;;;;;5078818;28;20044;-73
2022/01/19 10:24:47;;;;;;;31.77;17.25;;;5.30;99.90;;;;;;5078764;28;20043;-73
2022/01/19 10:27:24;;;;;;;32.33;18.20;;;5.30;99.90;;;;;;5095889;28;20074;-73
2022/01/19 10:29:53;;;;;;;36.40;21.13;;;5.20;99.90;;;;;;5094811;28;20043;-73
2022/01/19 10:32:22;;;;;;;36.70;21.40;;;5.30;99.90;;;;;;5095471;28;20340;-73
2022/01/19 10:34:48;;;;;;;31.90;17.65;;;5.30;99.90;;;;;;5095789;28;20098;-73
2022/01/19 10:37:20;;;;;;;38.58;19.55;;;5.30;99.90;;;;;;5095751;28;20079;-73
2022/01/19 10:39:49;;;;;;;36.60;21.38;;;5.30;99.90;;;;;;5078648;28;20479;-73
2022/01/19 10:42:17;;;;;;;37.72;18.48;;;5.30;99.90;;;;;;5078392;28;20031;-73
2022/01/19 10:44:49;;;;;;;39.90;21.08;;;5.30;99.90;;;;;;5095171;28;20087;-72
2022/01/19 10:47:17;;;;;;;37.17;19.00;;;5.40;99.90;;;;;;5095223;28;20048;-72
2022/01/19 10:49:53;;;;;;;38.60;19.50;;;5.30;99.90;;;;;;5095299;28;20044;-73
2022/01/19 10:52:30;;;;;;;39.13;22.88;;;5.40;99.90;;;;;;5078470;28;20096;-72
2022/01/19 10:54:58;;;;;;;37.55;20.17;;;5.30;99.90;;;;;;5095118;28;20071;-80
2022/01/19 10:57:25;;;;;;;35.65;22.13;;;5.30;99.90;;;;;;5094119;28;20384;-75
2022/01/19 10:59:50;;;;;;;39.28;23.00;;;5.30;99.90;;;;;;5074886;28;20096;-74
2022/01/19 11:02:17;;;;;;;37.03;22.25;;;5.30;99.90;;;;;;5093169;28;20540;-74
2022/01/19 11:04:45;;;;;;;35.25;19.55;;;5.30;99.90;;;;;;5094143;28;20044;-73
2022/01/19 11:07:14;;;;;;;31.17;17.60;;;5.30;99.90;;;;;;5091987;28;20043;-74
2022/01/19 11:09:45;;;;;;;37.67;19.00;;;5.40;99.90;;;;;;5083603;28;20041;-73
2022/01/19 11:12:15;;;;;;;36.78;20.80;;;5.40;99.90;;;;;;5085172;28;20028;-73
2022/01/19 11:14:42;;;;;;;30.70;18.58;;;5.30;99.90;;;;;;5092089;28;20047;-74
2022/01/19 11:17:09;;;;;;;42.30;24.35;;;5.30;99.90;;;;;;5076137;28;20062;-73
2022/01/19 11:19:40;;;;;;;37.38;23.63;;;5.30;99.90;;;;;;5091881;28;20040;-73
2022/01/19 11:22:14;;;;;;;37.92;22.42;;;5.30;99.90;;;;;;5092973;28;20040;-73
2022/01/19 11:24:54;;;;;;;43.78;25.88;;;5.30;99.90;;;;;;5075267;28;20386;-73
2022/01/19 11:27:20;;;;;;;37.20;20.00;;;5.30;99.90;;;;;;5092386;28;20106;-73
2022/01/19 11:30:07;;;;;;;40.97;22.95;;;5.40;99.90;;;;;;5090373;28;20040;-74
2022/01/19 11:32:33;;;;;;;38.83;23.42;;;5.30;99.90;;;;;;5093702;28;20036;-74
2022/01/19 11:34:58;;;;;;;35.83;21.27;;;5.30;99.90;;;;;;5091525;28;20040;-74
2022/01/19 11:37:39;;;;;;;39.13;22.73;;;5.30;99.90;;;;;;5093066;28;20036;-74
2022/01/19 11:40:07;;;;;;;36.42;20.92;;;5.20;99.90;;;;;;5092675;28;20043;-74
2022/01/19 11:42:34;;;;;;;43.40;21.60;;;5.30;99.90;;;;;;5091761;28;20447;-73
2022/01/19 11:45:00;;;;;;;30.58;16.42;;;5.30;99.90;;;;;;5093005;28;20496;-74
2022/01/19 11:47:31;;;;;;;29.30;15.20;;;5.40;99.90;;;;;;5091514;28;20055;-74
2022/01/19 11:49:59;;;;;;;37.55;21.88;;;5.40;99.90;;;;;;5092701;28;20051;-74
2022/01/19 11:52:37;;;;;;;40.45;21.08;;;5.40;99.90;;;;;;5092141;28;20036;-74
2022/01/19 11:55:21;;;;;;;35.85;21.13;;;5.40;99.90;;;;;;5093131;28;20442;-74
2022/01/19 11:58:09;;;;;;;39.33;19.60;;;5.40;99.90;;;;;;5073663;28;20044;-74
2022/01/19 12:00:35;;;;;;;37.58;20.98;;;5.40;99.90;;;;;;5068030;28;20655;-74
2022/01/19 12:03:24;;;;;;;45.15;23.05;;;5.40;99.90;;;;;;5089282;28;20062;-73
2022/01/19 12:05:51;;;;;;;54.38;29.80;;;5.40;99.90;;;;;;5071598;28;20047;-74
2022/01/19 12:08:22;;;;;;;26.77;13.27;;;5.30;99.90;;;;;;5084837;28;20039;-73
2022/01/19 12:10:49;;;;;;;47.50;24.85;;;5.40;99.90;;;;;;5074678;28;20043;-74
2022/01/19 12:16:51;;;;;;;48.88;25.92;;;5.50;99.90;;;;;;5092455;28;20046;-73
2022/01/19 12:19:20;;;;;;;43.65;23.25;;;5.60;99.90;;;;;;5075223;28;20569;-74
2022/01/19 12:21:54;;;;;;;43.70;20.58;;;5.60;99.90;;;;;;5074103;28;20446;-74
2022/01/19 12:24:26;;;;;;;45.63;24.02;;;5.70;99.90;;;;;;5105700;28;20403;-74
2022/01/19 12:27:10;;;;;;;50.92;30.25;;;5.60;99.90;;;;;;5075587;28;20114;-73
2022/01/19 12:29:37;;;;;;;45.75;25.40;;;5.60;99.90;;;;;;5075135;28;20051;-73
2022/01/19 12:32:04;;;;;;;35.70;17.10;;;5.60;99.90;;;;;;5092037;28;20048;-73
2022/01/19 12:34:43;;;;;;;54.05;28.98;;;5.70;99.90;;;;;;5092642;28;20109;-73
2022/01/19 12:37:10;;;;;;;60.78;27.13;;;5.70;99.90;;;;;;5090071;28;20089;-74
2022/01/19 12:39:44;;;;;;;45.53;24.90;;;5.60;99.90;;;;;;5063393;28;20048;-74
2022/01/19 12:42:21;;;;;;;46.83;24.00;;;5.60;99.90;;;;;;5056217;28;20492;-74
2022/01/19 12:44:51;;;;;;;40.22;21.30;;;5.60;99.90;;;;;;5056488;28;20119;-74
2022/01/19 12:47:28;;;;;;;47.45;24.05;;;5.80;99.90;;;;;;5073560;28;20251;-74
2022/01/19 12:50:09;;;;;;;29.55;15.55;;;5.70;99.90;;;;;;5092720;28;20044;-73
2022/01/19 12:52:49;;;;;;;49.97;26.48;;;5.80;99.90;;;;;;5092608;28;20517;-74
2022/01/19 12:55:29;;;;;;;36.67;18.77;;;5.80;99.90;;;;;;5092766;28;20118;-74
2022/01/19 12:57:57;;;;;;;39.47;20.10;;;5.90;99.90;;;;;;5075196;28;20047;-74
2022/01/19 13:00:29;;;;;;;52.67;25.77;;;5.90;99.90;;;;;;5075740;28;20043;-75
2022/01/19 13:02:54;;;;;;;50.95;23.20;;;5.80;99.90;;;;;;5075306;28;20051;-75
2022/01/19 13:05:21;;;;;;;38.90;19.48;;;6.00;99.90;;;;;;5092295;28;20040;-75
2022/01/19 13:07:53;;;;;;;41.22;23.25;;;5.90;99.90;;;;;;5091895;28;20075;-75
2022/01/19 13:11:11;;;;;;;35.30;17.17;;;5.90;99.90;;;;;;5075218;28;20042;-75
2022/01/19 13:13:35;;;;;;;48.20;26.00;;;5.90;99.90;;;;;;5086904;28;20404;-75
2022/01/19 13:16:04;;;;;;;29.30;13.30;;;5.90;99.90;;;;;;5091211;28;20507;-75
2022/01/19 13:18:42;;;;;;;43.03;21.65;;;6.00;99.90;;;;;;5092163;28;20044;-75
2022/01/19 13:21:26;;;;;;;43.50;24.90;;;6.00;99.90;;;;;;5075137;28;20149;-75
2022/01/19 13:23:58;;;;;;;49.03;25.63;;;6.00;99.90;;;;;;5092178;28;20478;-74
2022/01/19 13:26:34;;;;;;;39.03;19.45;;;5.90;99.90;;;;;;5091994;28;20042;-75
2022/01/19 13:29:22;;;;;;;48.63;24.05;;;6.00;99.90;;;;;;5074810;28;20043;-74
2022/01/19 13:31:53;;;;;;;49.42;23.58;;;6.10;99.90;;;;;;5084660;28;20037;-74
2022/01/19 13:34:19;;;;;;;43.17;20.90;;;6.10;99.90;;;;;;5054875;28;20139;-74
2022/01/19 13:36:53;;;;;;;32.53;14.68;;;6.10;99.90;;;;;;5086897;28;20475;-74
2022/01/19 13:39:21;;;;;;;43.33;19.77;;;6.10;99.90;;;;;;5073649;28;20036;-74
2022/01/19 13:41:50;;;;;;;33.97;14.98;;;6.20;99.90;;;;;;5074660;28;20374;-74
2022/01/19 13:44:21;;;;;;;46.30;24.85;;;6.20;99.90;;;;;;5090174;28;20044;-74
2022/01/19 13:46:46;;;;;;;39.40;19.52;;;6.10;99.90;;;;;;5071270;28;20066;-75
2022/01/19 13:49:13;;;;;;;32.95;16.88;;;6.00;99.90;;;;;;5105628;28;20484;-75
2022/01/19 13:51:43;;;;;;;48.85;25.60;;;6.00;99.90;;;;;;5087100;28;20032;-75
2022/01/19 13:54:09;;;;;;;43.75;25.13;;;5.90;99.90;;;;;;5090359;28;20040;-75
2022/01/19 13:56:38;;;;;;;38.03;22.35;;;5.90;99.90;;;;;;5067932;28;20127;-75
2022/01/19 13:59:17;;;;;;;33.83;15.43;;;6.00;99.90;;;;;;5071808;28;20032;-75
2022/01/19 14:02:06;;;;;;;31.83;17.90;;;6.10;99.90;;;;;;5072947;28;20097;-76
2022/01/19 14:04:34;;;;;;;44.22;23.13;;;6.10;99.90;;;;;;5088321;28;20032;-76
2022/01/19 14:07:05;;;;;;;32.08;17.55;;;6.00;99.90;;;;;;5071613;28;20028;-76
2022/01/19 14:09:34;;;;;;;43.07;22.23;;;6.00;99.90;;;;;;5072332;28;20116;-76
2022/01/19 14:12:06;;;;;;;34.30;17.08;;;6.00;99.90;;;;;;5071126;28;20569;-76
2022/01/19 14:14:36;;;;;;;36.78;16.67;;;5.90;99.90;;;;;;5073094;28;20135;-76